Time;durP1;ratioP1;P1;durP2;ratioP2;P2;SDS_P1;SDS_P2;PMS_P1;PMS_P2;Temp;Humidity;BMP_temperature;BMP_pressure;BME280_temperature;BME280_humidity;BME280_pressure;Samples;Min_cycle;Max_cycle;Signal;HPM_P1;HPM_P2
2023/10/24 00:02:22;;;;;;;4.67;1.77;;;12.10;99.90;;;;;;5095839;28;20236;-45
2023/10/24 00:04:48;;;;;;;3.77;1.97;;;12.10;99.90;;;;;;5096045;28;20267;-45
2023/10/24 00:07:13;;;;;;;3.57;1.77;;;12.10;99.90;;;;;;5095671;28;20198;-45
2023/10/24 00:09:39;;;;;;;5.37;2.37;;;12.10;99.90;;;;;;5077835;28;20654;-44
2023/10/24 00:12:06;;;;;;;1.63;1.50;;;12.10;99.90;;;;;;5077561;28;20186;-45
2023/10/24 00:14:40;;;;;;;4.83;2.00;;;12.10;99.90;;;;;;5095512;28;20182;-46
2023/10/24 00:17:06;;;;;;;5.47;1.77;;;12.10;99.90;;;;;;5094830;28;20190;-44
2023/10/24 00:19:34;;;;;;;3.27;1.80;;;12.10;99.90;;;;;;5095464;28;20186;-44
2023/10/24 00:22:03;;;;;;;3.50;2.00;;;12.20;99.90;;;;;;5095266;28;20195;-44
2023/10/24 00:24:29;;;;;;;2.57;2.10;;;12.20;99.90;;;;;;5095738;28;20545;-44
2023/10/24 00:26:57;;;;;;;4.17;1.90;;;12.20;99.90;;;;;;5077538;28;20207;-45
2023/10/24 00:29:25;;;;;;;2.30;1.93;;;12.20;99.90;;;;;;5094521;28;20638;-45
2023/10/24 00:31:51;;;;;;;5.77;2.37;;;12.20;99.90;;;;;;5095791;28;20197;-45
2023/10/24 00:34:17;;;;;;;3.90;2.20;;;12.20;99.90;;;;;;5095685;28;20686;-45
2023/10/24 00:36:43;;;;;;;4.07;2.00;;;12.20;99.90;;;;;;5095381;28;20171;-45
2023/10/24 00:39:10;;;;;;;7.00;2.13;;;12.20;99.90;;;;;;5095396;28;20553;-44
2023/10/24 00:41:38;;;;;;;3.23;1.77;;;12.20;99.90;;;;;;5094965;28;20263;-45
2023/10/24 00:44:06;;;;;;;3.60;1.90;;;12.10;99.90;;;;;;5095095;28;20167;-45
2023/10/24 00:46:33;;;;;;;6.10;2.20;;;12.20;99.90;;;;;;5095127;28;20225;-46
2023/10/24 00:49:00;;;;;;;3.27;2.37;;;12.20;99.90;;;;;;5076896;28;20194;-45
2023/10/24 00:51:26;;;;;;;6.77;1.90;;;12.10;99.90;;;;;;5094811;28;20269;-45
2023/10/24 00:53:55;;;;;;;5.17;2.20;;;12.20;99.90;;;;;;5077074;28;20716;-44
2023/10/24 00:56:22;;;;;;;4.60;1.80;;;12.10;99.90;;;;;;5095028;28;20190;-45
2023/10/24 00:58:48;;;;;;;5.53;2.00;;;12.10;99.90;;;;;;5094623;28;20222;-45
2023/10/24 01:01:17;;;;;;;4.20;1.90;;;12.10;99.90;;;;;;5094622;28;20222;-45
2023/10/24 01:03:46;;;;;;;4.43;1.90;;;12.20;99.90;;;;;;5094953;28;20254;-45
2023/10/24 01:06:11;;;;;;;2.80;1.40;;;12.10;99.90;;;;;;5093887;28;20242;-44
2023/10/24 01:08:37;;;;;;;1.83;1.40;;;12.10;99.90;;;;;;5094469;28;20267;-46
2023/10/24 01:11:05;;;;;;;3.17;1.20;;;12.20;99.90;;;;;;5094661;28;20210;-47
2023/10/24 01:13:32;;;;;;;3.17;1.40;;;12.20;99.90;;;;;;5094645;28;20538;-45
2023/10/24 01:15:59;;;;;;;1.57;1.10;;;12.20;99.90;;;;;;5094466;28;20260;-46
2023/10/24 01:18:25;;;;;;;1.87;1.20;;;12.20;99.90;;;;;;5094484;28;20213;-45
2023/10/24 01:20:51;;;;;;;3.63;1.00;;;12.20;99.90;;;;;;5076724;28;20626;-44
2023/10/24 01:23:17;;;;;;;1.10;0.80;;;12.20;99.90;;;;;;5059609;28;20624;-44
2023/10/24 01:25:48;;;;;;;3.43;1.00;;;12.30;99.90;;;;;;5094071;28;20199;-45
2023/10/24 01:28:14;;;;;;;0.93;0.90;;;12.30;99.90;;;;;;5094459;28;20167;-45
2023/10/24 01:30:40;;;;;;;3.60;0.90;;;12.30;99.90;;;;;;5093792;28;20205;-44
2023/10/24 01:33:06;;;;;;;1.07;0.90;;;12.30;99.90;;;;;;5094202;28;20190;-45
2023/10/24 01:38:24;;;;;;;1.97;1.13;;;12.30;99.90;;;;;;5094033;28;20606;-45
2023/10/24 01:40:51;;;;;;;2.43;0.97;;;12.30;99.90;;;;;;5093799;28;20207;-45
2023/10/24 01:43:17;;;;;;;1.83;1.33;;;12.30;99.90;;;;;;5094056;28;20244;-45
2023/10/24 01:45:43;;;;;;;1.33;1.23;;;12.30;99.90;;;;;;5093756;28;20206;-45
2023/10/24 01:48:08;;;;;;;2.77;1.27;;;12.30;99.90;;;;;;5093744;28;20186;-44
2023/10/24 01:50:34;;;;;;;1.30;1.10;;;12.30;99.90;;;;;;5075715;28;20210;-45
2023/10/24 01:53:01;;;;;;;1.93;0.93;;;12.40;99.90;;;;;;5093767;28;20171;-44
2023/10/24 01:55:28;;;;;;;2.23;1.10;;;12.40;99.90;;;;;;5076530;28;20213;-44
2023/10/24 01:57:54;;;;;;;2.13;1.40;;;12.40;99.90;;;;;;5093625;28;20205;-46
2023/10/24 02:00:20;;;;;;;3.97;1.13;;;12.40;99.90;;;;;;5093705;28;20224;-45
2023/10/24 02:02:45;;;;;;;2.37;1.13;;;12.40;99.90;;;;;;5093704;28;20222;-45
2023/10/24 02:05:12;;;;;;;1.30;1.00;;;12.40;99.90;;;;;;5093595;28;20547;-44
2023/10/24 02:07:38;;;;;;;1.87;1.00;;;12.40;99.90;;;;;;5093775;28;20276;-43
2023/10/24 02:10:05;;;;;;;1.97;1.20;;;12.40;99.90;;;;;;5093506;28;20195;-44
2023/10/24 02:12:34;;;;;;;1.77;1.10;;;12.40;99.90;;;;;;5075411;28;20190;-45
2023/10/24 02:14:59;;;;;;;2.23;1.10;;;12.40;99.90;;;;;;5093479;28;20210;-44
2023/10/24 02:17:25;;;;;;;1.03;0.93;;;12.30;99.90;;;;;;5093507;28;20225;-44
2023/10/24 02:19:53;;;;;;;0.97;0.90;;;12.30;99.90;;;;;;5075763;28;20191;-44
2023/10/24 02:22:19;;;;;;;5.33;1.00;;;12.30;99.90;;;;;;5094553;28;20186;-45
2023/10/24 02:24:44;;;;;;;4.43;1.13;;;12.30;99.90;;;;;;5093772;28;20599;-45
2023/10/24 02:27:10;;;;;;;2.37;1.07;;;12.30;99.90;;;;;;5092445;28;20254;-45
2023/10/24 02:29:39;;;;;;;1.87;1.10;;;12.30;99.90;;;;;;5093595;28;20186;-44
2023/10/24 02:32:05;;;;;;;1.73;1.20;;;12.20;99.90;;;;;;5093541;28;20183;-44
2023/10/24 02:34:32;;;;;;;3.23;1.20;;;12.20;99.90;;;;;;5093564;28;20323;-44
2023/10/24 02:37:01;;;;;;;2.33;1.00;;;12.20;99.90;;;;;;5093578;28;20218;-44
2023/10/24 02:39:29;;;;;;;3.30;1.37;;;12.20;99.90;;;;;;5075256;28;20186;-44
2023/10/24 02:41:55;;;;;;;2.37;1.20;;;12.20;99.90;;;;;;5093227;28;20195;-45
2023/10/24 02:44:20;;;;;;;2.37;1.17;;;12.10;99.90;;;;;;5093254;28;20639;-45
2023/10/24 02:46:46;;;;;;;2.53;1.10;;;12.10;99.90;;;;;;5093441;28;20202;-44
2023/10/24 02:49:12;;;;;;;1.57;1.27;;;12.10;99.90;;;;;;5093358;28;20630;-45
2023/10/24 02:51:37;;;;;;;2.90;1.00;;;12.10;99.90;;;;;;5076067;28;20203;-45
2023/10/24 02:54:03;;;;;;;2.67;1.17;;;12.10;99.90;;;;;;5097716;28;20175;-45
2023/10/24 02:56:29;;;;;;;1.60;1.00;;;12.10;99.90;;;;;;5097045;28;20179;-46
2023/10/24 02:58:54;;;;;;;1.77;0.90;;;12.20;99.90;;;;;;5096968;28;20202;-44
2023/10/24 03:01:21;;;;;;;1.97;0.90;;;12.20;99.90;;;;;;5078778;28;20198;-45
2023/10/24 03:03:47;;;;;;;2.07;0.77;;;12.10;99.90;;;;;;5097309;28;20174;-45
2023/10/24 03:06:18;;;;;;;1.37;0.90;;;12.10;99.90;;;;;;5097016;28;20199;-46
2023/10/24 03:08:44;;;;;;;1.33;0.70;;;12.10;99.90;;;;;;5078954;28;20266;-46
2023/10/24 03:11:09;;;;;;;2.87;0.80;;;12.10;99.90;;;;;;5097107;28;20647;-46
2023/10/24 03:13:36;;;;;;;1.97;0.80;;;12.10;99.90;;;;;;5096918;28;20170;-44
2023/10/24 03:16:05;;;;;;;1.53;0.90;;;12.10;99.90;;;;;;5097046;28;20552;-44
2023/10/24 03:18:32;;;;;;;1.90;0.93;;;12.10;99.90;;;;;;5096989;28;20630;-45
2023/10/24 03:21:00;;;;;;;1.70;0.50;;;12.10;99.90;;;;;;5096795;28;20202;-44
2023/10/24 03:23:26;;;;;;;0.93;0.60;;;12.10;99.90;;;;;;5078379;28;20191;-47
2023/10/24 03:25:52;;;;;;;1.37;0.63;;;12.10;99.90;;;;;;5096514;28;20209;-45
2023/10/24 03:28:18;;;;;;;0.60;0.60;;;12.10;99.90;;;;;;5096230;28;20547;-46
2023/10/24 03:30:48;;;;;;;1.00;0.70;;;12.10;99.90;;;;;;5078661;28;20199;-44
2023/10/24 03:33:14;;;;;;;0.80;0.70;;;12.10;99.90;;;;;;5096619;28;20243;-44
2023/10/24 03:35:40;;;;;;;2.67;1.00;;;12.10;99.90;;;;;;5078077;28;20191;-44
2023/10/24 03:38:08;;;;;;;1.73;0.80;;;12.10;99.90;;;;;;5096338;28;20657;-45
2023/10/24 03:40:37;;;;;;;0.80;0.70;;;12.00;99.90;;;;;;5096610;28;20551;-44
2023/10/24 03:43:03;;;;;;;0.80;0.80;;;12.10;99.90;;;;;;5097644;28;20179;-44
2023/10/24 03:45:31;;;;;;;1.07;0.87;;;12.00;99.90;;;;;;5097693;28;20304;-45
2023/10/24 03:47:57;;;;;;;1.27;0.70;;;12.00;99.90;;;;;;5096111;28;20171;-44
2023/10/24 03:50:23;;;;;;;1.90;0.80;;;12.00;99.90;;;;;;5096105;28;20194;-45
2023/10/24 03:52:49;;;;;;;0.80;0.80;;;12.00;99.90;;;;;;5096219;28;20202;-45
2023/10/24 03:55:15;;;;;;;2.40;1.00;;;12.00;99.90;;;;;;5078412;28;20175;-45
2023/10/24 03:57:40;;;;;;;4.43;0.80;;;12.00;99.90;;;;;;5096368;28;20175;-46
2023/10/24 04:00:08;;;;;;;5.23;1.00;;;11.90;99.90;;;;;;5078811;28;20203;-45
2023/10/24 04:02:34;;;;;;;1.57;1.00;;;11.90;99.90;;;;;;5096354;28;20171;-45
2023/10/24 04:05:01;;;;;;;1.80;0.90;;;11.80;99.90;;;;;;5078398;28;20183;-41
2023/10/24 04:07:27;;;;;;;5.33;1.20;;;11.80;99.90;;;;;;5077716;28;20302;-40
2023/10/24 04:09:53;;;;;;;2.03;1.00;;;11.80;99.90;;;;;;5078028;28;20186;-41
2023/10/24 04:12:18;;;;;;;1.67;0.90;;;11.70;99.90;;;;;;5095738;28;20175;-40
2023/10/24 04:14:45;;;;;;;6.37;1.00;;;11.70;99.90;;;;;;5096206;28;20668;-39
2023/10/24 04:17:11;;;;;;;0.77;0.77;;;11.60;99.90;;;;;;5096226;28;20179;-40
2023/10/24 04:19:36;;;;;;;1.00;1.00;;;11.60;99.90;;;;;;5060865;28;20190;-40
2023/10/24 04:22:02;;;;;;;1.57;1.47;;;11.50;99.90;;;;;;5095514;28;20190;-40
2023/10/24 04:24:28;;;;;;;2.63;1.43;;;11.50;99.90;;;;;;5077611;28;20183;-39
2023/10/24 04:26:54;;;;;;;4.53;1.67;;;11.50;99.90;;;;;;5095674;28;20225;-39
2023/10/24 04:29:20;;;;;;;1.93;1.43;;;11.50;99.90;;;;;;5095423;28;20171;-39
2023/10/24 04:31:45;;;;;;;2.17;1.70;;;11.60;99.90;;;;;;5077457;28;20207;-40
2023/10/24 04:34:11;;;;;;;3.33;1.73;;;11.50;99.90;;;;;;5077230;28;20179;-40
2023/10/24 04:36:37;;;;;;;1.80;1.60;;;11.60;99.90;;;;;;5077244;28;20763;-40
2023/10/24 04:39:03;;;;;;;3.37;1.67;;;11.60;99.90;;;;;;5077016;28;20587;-39
2023/10/24 04:41:28;;;;;;;2.20;1.40;;;11.60;99.90;;;;;;5077105;28;20599;-39
2023/10/24 04:43:54;;;;;;;3.23;1.67;;;11.50;99.90;;;;;;5077123;28;20217;-40
2023/10/24 04:46:19;;;;;;;3.07;1.60;;;11.50;99.90;;;;;;5076844;28;20297;-41
2023/10/24 04:48:45;;;;;;;2.40;1.73;;;11.50;99.90;;;;;;5094956;28;20175;-40
2023/10/24 04:51:11;;;;;;;2.50;1.87;;;11.50;99.90;;;;;;5095168;28;20194;-39
2023/10/24 04:53:37;;;;;;;2.30;1.40;;;11.50;99.90;;;;;;5094860;28;20216;-42
2023/10/24 04:56:03;;;;;;;3.50;2.17;;;11.50;99.90;;;;;;5076723;28;20205;-40
2023/10/24 04:58:31;;;;;;;2.10;1.73;;;11.50;99.90;;;;;;5076747;28;20274;-40
2023/10/24 05:00:58;;;;;;;3.80;1.87;;;11.50;99.90;;;;;;5093456;28;20550;-42
2023/10/24 05:03:23;;;;;;;2.10;1.90;;;11.50;99.90;;;;;;5077097;28;20187;-42
2023/10/24 05:05:49;;;;;;;4.50;2.10;;;11.50;99.90;;;;;;5094547;28;20202;-43
2023/10/24 05:08:14;;;;;;;3.30;1.90;;;11.50;99.90;;;;;;5076789;28;20189;-40
2023/10/24 05:10:43;;;;;;;3.47;1.80;;;11.50;99.90;;;;;;5094498;28;20195;-41
2023/10/24 05:13:08;;;;;;;3.47;1.70;;;11.50;99.90;;;;;;5094715;28;20225;-39
2023/10/24 05:15:34;;;;;;;5.73;2.07;;;11.50;99.90;;;;;;5094256;28;20186;-40
2023/10/24 05:17:59;;;;;;;3.77;1.80;;;11.50;99.90;;;;;;5094645;28;20224;-39
2023/10/24 05:20:25;;;;;;;2.57;1.70;;;12.10;99.90;;;;;;5094575;28;20686;-40
2023/10/24 05:22:54;;;;;;;2.60;1.90;;;11.40;99.90;;;;;;5094620;28;20209;-40
2023/10/24 05:25:20;;;;;;;3.40;2.00;;;11.50;99.90;;;;;;5094622;28;20183;-41
2023/10/24 05:27:45;;;;;;;3.10;1.60;;;11.40;99.90;;;;;;5094407;28;20220;-41
2023/10/24 05:30:12;;;;;;;1.90;1.63;;;11.50;99.90;;;;;;5094197;28;20200;-42
2023/10/24 05:32:38;;;;;;;1.77;1.67;;;11.50;99.90;;;;;;5094180;28;20182;-42
2023/10/24 05:35:05;;;;;;;1.47;1.37;;;11.40;99.90;;;;;;5094442;28;20179;-41
2023/10/24 05:37:31;;;;;;;2.63;1.50;;;11.50;99.90;;;;;;5094032;28;20189;-40
2023/10/24 05:39:57;;;;;;;2.20;1.50;;;11.40;99.90;;;;;;5091676;28;20726;-40
2023/10/24 05:42:22;;;;;;;4.73;1.60;;;11.40;99.90;;;;;;5075950;28;20646;-41
2023/10/24 05:44:48;;;;;;;2.83;1.27;;;11.40;99.90;;;;;;5093926;28;20238;-40
2023/10/24 05:47:14;;;;;;;3.67;1.20;;;11.50;99.90;;;;;;5094110;28;20198;-40
2023/10/24 05:49:42;;;;;;;1.83;1.40;;;11.50;99.90;;;;;;5093781;28;20650;-40
2023/10/24 05:52:08;;;;;;;2.07;1.50;;;11.50;99.90;;;;;;5094239;28;20186;-40
2023/10/24 05:54:36;;;;;;;3.00;1.23;;;11.40;99.90;;;;;;5093848;28;20179;-40
2023/10/24 05:57:03;;;;;;;1.30;1.20;;;11.40;99.90;;;;;;5094002;28;20167;-40
2023/10/24 05:59:29;;;;;;;1.30;1.07;;;11.40;99.90;;;;;;5093704;28;20587;-40
2023/10/24 06:01:55;;;;;;;2.03;0.93;;;11.50;99.90;;;;;;5093871;28;20209;-42
2023/10/24 06:04:20;;;;;;;1.30;0.97;;;11.40;99.90;;;;;;5093930;28;20179;-41
2023/10/24 06:06:46;;;;;;;1.43;1.27;;;11.50;99.90;;;;;;5093532;28;20206;-40
2023/10/24 06:09:13;;;;;;;1.33;1.10;;;11.40;99.90;;;;;;5093622;28;20202;-43
2023/10/24 06:11:39;;;;;;;2.90;2.20;;;11.50;99.90;;;;;;5093435;28;20712;-39
2023/10/24 06:14:08;;;;;;;2.03;1.00;;;11.50;99.90;;;;;;5093656;28;20175;-40
2023/10/24 06:16:34;;;;;;;1.80;1.23;;;11.40;99.90;;;;;;5093546;28;20171;-41
2023/10/24 06:18:59;;;;;;;1.10;1.00;;;11.50;99.90;;;;;;5093597;28;20261;-40
2023/10/24 06:21:26;;;;;;;1.23;1.00;;;11.50;99.90;;;;;;5075643;28;20608;-41
2023/10/24 06:23:53;;;;;;;1.73;1.10;;;11.50;99.90;;;;;;5093805;28;20221;-41
2023/10/24 06:26:19;;;;;;;2.50;1.10;;;11.50;99.90;;;;;;5093925;28;20198;-39
2023/10/24 06:28:45;;;;;;;3.73;1.40;;;11.50;99.90;;;;;;5097793;28;20171;-40
2023/10/24 06:31:12;;;;;;;2.43;0.70;;;11.50;99.90;;;;;;5097860;28;20190;-40
2023/10/24 06:33:40;;;;;;;2.90;1.20;;;11.50;99.90;;;;;;5097536;28;20175;-41
2023/10/24 06:36:06;;;;;;;2.03;1.20;;;11.50;99.90;;;;;;5080006;28;20175;-42
2023/10/24 06:38:34;;;;;;;1.30;0.90;;;11.50;99.90;;;;;;5097538;28;20183;-47
2023/10/24 06:41:05;;;;;;;2.10;0.93;;;11.50;99.90;;;;;;5097456;28;20198;-46
2023/10/24 06:43:32;;;;;;;2.00;0.60;;;11.60;99.90;;;;;;5097683;28;20173;-45
2023/10/24 06:45:58;;;;;;;1.70;0.80;;;11.60;99.90;;;;;;5097402;28;20194;-46
2023/10/24 06:48:25;;;;;;;1.53;0.80;;;11.60;99.90;;;;;;5079608;28;20623;-46
2023/10/24 06:50:51;;;;;;;1.63;0.97;;;11.60;99.90;;;;;;5079102;28;20342;-46
2023/10/24 06:53:17;;;;;;;1.37;1.00;;;11.60;99.90;;;;;;5079501;28;20270;-46
2023/10/24 06:55:46;;;;;;;0.70;0.70;;;11.60;99.90;;;;;;5079178;28;20175;-46
2023/10/24 06:58:12;;;;;;;1.70;0.90;;;11.70;99.90;;;;;;5097200;28;20588;-46
2023/10/24 07:00:39;;;;;;;1.33;0.97;;;11.70;99.90;;;;;;5097249;28;20198;-46
2023/10/24 07:03:05;;;;;;;2.00;1.10;;;11.70;99.90;;;;;;5097079;28;20536;-47
2023/10/24 07:05:32;;;;;;;3.00;1.30;;;11.70;99.90;;;;;;5097136;28;20258;-46
2023/10/24 07:08:01;;;;;;;1.40;1.07;;;11.70;99.90;;;;;;5096852;28;20182;-46
2023/10/24 07:10:26;;;;;;;1.47;1.10;;;11.70;99.90;;;;;;5096819;28;20191;-45
2023/10/24 07:12:52;;;;;;;2.37;1.00;;;11.80;99.90;;;;;;5078914;28;20557;-45
2023/10/24 07:15:18;;;;;;;1.20;0.90;;;11.80;99.90;;;;;;5096813;28;20250;-45
2023/10/24 07:17:47;;;;;;;0.97;0.77;;;11.80;99.90;;;;;;5096823;28;20646;-46
2023/10/24 07:20:15;;;;;;;1.87;0.87;;;11.80;99.90;;;;;;5096968;28;20272;-46
2023/10/24 07:22:41;;;;;;;4.17;0.93;;;11.80;99.90;;;;;;5078799;28;20725;-46
2023/10/24 07:25:09;;;;;;;1.27;0.87;;;11.80;99.90;;;;;;5096813;28;20227;-46
2023/10/24 07:27:35;;;;;;;1.00;0.80;;;11.80;99.90;;;;;;5078670;28;20600;-46
2023/10/24 07:30:00;;;;;;;1.60;0.90;;;11.80;99.90;;;;;;5096447;28;20202;-46
2023/10/24 07:32:29;;;;;;;2.03;0.80;;;11.80;99.90;;;;;;5097027;28;20167;-45
2023/10/24 07:34:56;;;;;;;1.03;0.90;;;11.90;99.90;;;;;;5096442;28;20254;-47
2023/10/24 07:37:23;;;;;;;2.47;0.93;;;11.90;99.90;;;;;;5096400;28;20206;-46
2023/10/24 07:39:50;;;;;;;0.97;0.80;;;11.80;99.90;;;;;;5078719;28;20240;-46
2023/10/24 07:42:16;;;;;;;1.20;0.73;;;11.90;99.90;;;;;;5096524;28;20266;-46
2023/10/24 07:44:44;;;;;;;1.87;0.80;;;11.90;99.90;;;;;;5097024;28;20258;-45
2023/10/24 07:47:10;;;;;;;1.10;0.90;;;11.90;99.90;;;;;;5096170;28;20195;-47
2023/10/24 07:49:38;;;;;;;1.40;0.80;;;11.90;99.90;;;;;;5096383;28;20193;-46
2023/10/24 07:52:04;;;;;;;2.00;0.90;;;11.90;99.90;;;;;;5078019;28;20248;-46
2023/10/24 07:54:30;;;;;;;1.47;1.10;;;11.90;99.90;;;;;;5096267;28;20634;-45
2023/10/24 07:56:57;;;;;;;1.20;1.10;;;11.90;99.90;;;;;;5095969;28;20171;-45
2023/10/24 07:59:23;;;;;;;1.20;0.80;;;12.00;99.90;;;;;;5095865;28;20205;-46
2023/10/24 08:01:49;;;;;;;2.40;1.13;;;12.00;99.90;;;;;;5095788;28;20195;-46
2023/10/24 08:04:14;;;;;;;2.97;1.17;;;12.00;99.90;;;;;;5077825;28;20603;-45
2023/10/24 08:06:40;;;;;;;1.67;0.90;;;12.00;99.90;;;;;;5095804;28;20278;-46
2023/10/24 08:09:05;;;;;;;1.50;1.10;;;12.00;99.90;;;;;;5095748;28;20214;-45
2023/10/24 08:11:31;;;;;;;2.57;0.97;;;12.00;99.90;;;;;;5095879;28;20222;-46
2023/10/24 08:13:57;;;;;;;3.37;0.93;;;12.10;99.90;;;;;;5095694;28;20253;-46
2023/10/24 08:16:23;;;;;;;1.67;1.07;;;12.10;99.90;;;;;;5077529;28;20218;-46
2023/10/24 08:18:48;;;;;;;2.23;1.00;;;12.10;99.90;;;;;;5095583;28;20228;-47
2023/10/24 08:21:16;;;;;;;1.97;0.80;;;12.10;99.90;;;;;;5077418;28;20199;-46
2023/10/24 08:23:41;;;;;;;1.20;1.10;;;12.20;99.90;;;;;;5095497;28;20296;-46
2023/10/24 08:26:07;;;;;;;2.13;1.20;;;12.20;99.90;;;;;;5095944;28;20208;-46
2023/10/24 08:28:36;;;;;;;2.37;1.00;;;12.20;99.90;;;;;;5095293;28;20186;-45
2023/10/24 08:31:01;;;;;;;1.80;0.97;;;12.20;99.90;;;;;;5077145;28;20199;-46
2023/10/24 08:33:28;;;;;;;2.33;1.20;;;12.30;99.90;;;;;;5077273;28;20189;-46
2023/10/24 08:35:55;;;;;;;1.20;1.00;;;12.30;99.90;;;;;;5095176;28;20680;-45
2023/10/24 08:38:22;;;;;;;1.50;0.97;;;12.40;99.90;;;;;;5095223;28;20198;-45
2023/10/24 08:40:47;;;;;;;2.10;1.40;;;12.40;99.90;;;;;;5095306;28;20209;-47
2023/10/24 08:43:13;;;;;;;3.77;1.40;;;12.40;99.90;;;;;;5095317;28;20183;-47
2023/10/24 08:45:39;;;;;;;5.40;1.70;;;12.50;99.90;;;;;;5095497;28;20266;-44
2023/10/24 08:48:08;;;;;;;1.67;1.10;;;12.60;99.90;;;;;;5095340;28;20626;-45
2023/10/24 08:50:34;;;;;;;1.97;1.17;;;12.70;99.90;;;;;;5094146;28;20199;-46
2023/10/24 08:53:02;;;;;;;2.33;1.17;;;12.80;99.90;;;;;;5077179;28;20189;-46
2023/10/24 08:55:30;;;;;;;4.37;1.30;;;12.80;99.90;;;;;;5095071;28;20200;-47
2023/10/24 08:57:59;;;;;;;3.37;1.20;;;12.90;99.90;;;;;;5094749;28;20179;-45
2023/10/24 09:00:26;;;;;;;2.50;1.03;;;13.00;99.90;;;;;;5076619;28;20411;-45
2023/10/24 09:02:54;;;;;;;5.53;1.47;;;13.10;99.90;;;;;;5095011;28;20202;-46
2023/10/24 09:05:21;;;;;;;4.07;1.50;;;13.10;99.90;;;;;;5094858;28;20639;-46
2023/10/24 09:07:46;;;;;;;2.40;1.10;;;13.10;99.90;;;;;;5094605;28;20248;-46
2023/10/24 09:10:14;;;;;;;2.17;1.10;;;13.20;99.90;;;;;;5095153;28;20273;-45
2023/10/24 09:12:40;;;;;;;1.37;1.10;;;13.30;99.90;;;;;;5095001;28;20179;-42
2023/10/24 09:15:09;;;;;;;3.70;1.70;;;13.40;99.90;;;;;;5076284;28;20673;-41
2023/10/24 09:17:40;;;;;;;1.80;1.10;;;13.40;99.90;;;;;;5094265;28;20669;-42
2023/10/24 09:20:10;;;;;;;2.37;1.30;;;13.50;99.90;;;;;;5095204;28;20585;-40
2023/10/24 09:22:36;;;;;;;1.33;1.23;;;13.50;99.90;;;;;;5076470;28;20296;-42
2023/10/24 09:28:29;;;;;;;3.70;1.47;;;13.60;99.90;;;;;;5094334;28;20171;-41
2023/10/24 09:30:59;;;;;;;2.73;1.27;;;13.70;99.90;;;;;;5076414;28;20218;-41
2023/10/24 09:33:27;;;;;;;2.80;1.70;;;13.70;99.90;;;;;;5076256;28;20249;-40
2023/10/24 09:36:01;;;;;;;1.20;1.07;;;13.80;99.90;;;;;;5094334;28;20206;-42
2023/10/24 09:38:29;;;;;;;2.20;1.27;;;13.80;99.90;;;;;;5094442;28;20167;-42
2023/10/24 09:40:56;;;;;;;2.60;1.00;;;13.80;99.90;;;;;;5075430;28;20244;-41
2023/10/24 09:43:24;;;;;;;1.47;1.00;;;13.80;99.90;;;;;;5094344;28;20228;-40
2023/10/24 09:45:54;;;;;;;1.30;1.03;;;13.90;99.90;;;;;;5059252;28;20206;-41
2023/10/24 09:48:22;;;;;;;2.70;1.10;;;13.90;99.90;;;;;;5076824;28;20228;-41
2023/10/24 09:50:52;;;;;;;1.70;0.90;;;13.90;99.90;;;;;;5094114;28;20233;-42
2023/10/24 09:53:19;;;;;;;3.43;1.20;;;13.90;99.90;;;;;;5093940;28;20203;-41
2023/10/24 09:55:48;;;;;;;3.13;1.00;;;13.90;99.90;;;;;;5093870;28;20171;-43
2023/10/24 09:58:17;;;;;;;2.03;1.00;;;14.00;99.90;;;;;;5094080;28;20225;-41
2023/10/24 10:00:43;;;;;;;1.50;1.10;;;14.00;99.90;;;;;;5093601;28;20206;-41
2023/10/24 10:03:13;;;;;;;1.90;1.27;;;14.00;99.90;;;;;;5093644;28;20591;-41
2023/10/24 10:05:43;;;;;;;2.13;1.00;;;14.00;99.90;;;;;;5093532;28;20178;-40
2023/10/24 10:08:12;;;;;;;2.27;1.10;;;14.00;99.90;;;;;;5094450;28;20163;-41
2023/10/24 10:10:42;;;;;;;1.00;0.80;;;14.10;99.90;;;;;;5093941;28;20203;-40
2023/10/24 10:13:11;;;;;;;1.50;0.90;;;14.10;99.90;;;;;;5075919;28;20178;-42
2023/10/24 10:16:01;;;;;;;1.50;0.83;;;14.10;99.90;;;;;;5093718;28;20214;-42
2023/10/24 10:18:45;;;;;;;1.33;0.90;;;14.20;99.90;;;;;;5074616;28;20187;-41
2023/10/24 10:21:35;;;;;;;1.93;1.03;;;14.20;99.90;;;;;;5075538;28;20190;-42
2023/10/24 10:24:48;;;;;;;3.37;1.10;;;14.20;99.90;;;;;;5075099;28;20239;-41
2023/10/24 10:27:28;;;;;;;1.40;1.07;;;14.30;99.90;;;;;;5093274;28;20281;-41
2023/10/24 10:30:32;;;;;;;1.07;0.97;;;14.20;99.90;;;;;;5075303;28;20170;-42
2023/10/24 10:33:18;;;;;;;1.33;1.00;;;14.30;99.90;;;;;;5093641;28;20171;-42
2023/10/24 10:35:55;;;;;;;2.07;0.97;;;14.30;99.90;;;;;;5058768;28;20281;-41
2023/10/24 10:38:46;;;;;;;1.70;1.10;;;14.30;99.90;;;;;;5093685;28;20157;-42
2023/10/24 10:41:23;;;;;;;3.23;1.40;;;14.30;99.90;;;;;;5075394;28;20202;-41
2023/10/24 10:43:51;;;;;;;1.20;1.10;;;14.40;99.90;;;;;;5075216;28;20206;-41
2023/10/24 10:46:19;;;;;;;1.40;0.90;;;14.40;99.90;;;;;;5093288;28;20269;-41
2023/10/24 10:48:50;;;;;;;2.33;1.37;;;14.50;99.90;;;;;;5093571;28;20198;-41
2023/10/24 10:51:22;;;;;;;2.40;1.20;;;14.50;99.90;;;;;;5093392;28;20742;-41
2023/10/24 10:54:06;;;;;;;2.27;1.50;;;14.50;99.90;;;;;;5076187;28;20167;-41
2023/10/24 10:56:39;;;;;;;2.67;1.20;;;14.50;99.90;;;;;;5093573;28;20169;-41
2023/10/24 10:59:25;;;;;;;2.03;1.03;;;14.50;99.90;;;;;;5075064;28;20180;-41
2023/10/24 11:02:18;;;;;;;4.73;1.20;;;14.50;99.90;;;;;;5092989;28;20232;-41
2023/10/24 11:04:44;;;;;;;1.83;1.10;;;14.50;99.90;;;;;;5093397;28;20508;-41
2023/10/24 11:07:09;;;;;;;1.70;1.10;;;14.50;99.90;;;;;;5075109;28;20201;-42
2023/10/24 11:09:41;;;;;;;2.50;1.00;;;14.50;99.90;;;;;;5093358;28;20175;-41
2023/10/24 11:12:19;;;;;;;3.23;1.40;;;14.40;99.90;;;;;;5093239;28;20665;-41
2023/10/24 11:15:11;;;;;;;4.10;1.23;;;14.40;99.90;;;;;;5097164;28;20654;-43
2023/10/24 11:17:37;;;;;;;1.07;0.97;;;14.40;99.90;;;;;;5096709;28;20178;-42
2023/10/24 11:20:09;;;;;;;2.93;1.30;;;14.40;99.90;;;;;;5096627;28;20537;-43
2023/10/24 11:22:38;;;;;;;3.70;1.20;;;14.30;99.90;;;;;;5063449;28;20171;-44
2023/10/24 11:25:16;;;;;;;2.10;1.43;;;14.30;99.90;;;;;;5096648;28;20193;-41
2023/10/24 11:27:43;;;;;;;2.00;1.43;;;14.20;99.90;;;;;;5096772;28;20233;-43
2023/10/24 11:30:11;;;;;;;3.33;1.10;;;14.10;99.90;;;;;;5061745;28;20202;-46
2023/10/24 11:32:37;;;;;;;2.80;1.30;;;14.10;99.90;;;;;;5078343;28;20179;-42
2023/10/24 11:35:03;;;;;;;4.07;1.50;;;14.00;99.90;;;;;;5096765;28;20181;-44
2023/10/24 11:37:28;;;;;;;1.50;1.20;;;14.00;99.90;;;;;;5078228;28;20187;-42
2023/10/24 11:39:58;;;;;;;1.50;1.20;;;13.90;99.90;;;;;;5078245;28;20190;-45
2023/10/24 11:42:24;;;;;;;2.17;1.10;;;13.90;99.90;;;;;;5096807;28;20547;-44
2023/10/24 11:44:51;;;;;;;3.07;1.00;;;13.80;99.90;;;;;;5096611;28;20175;-43
2023/10/24 11:47:17;;;;;;;2.37;0.93;;;13.70;99.90;;;;;;5096150;28;20280;-43
2023/10/24 11:49:46;;;;;;;1.70;0.90;;;13.70;99.90;;;;;;5077904;28;20274;-43
2023/10/24 11:52:12;;;;;;;1.47;0.80;;;13.60;99.90;;;;;;5096488;28;20172;-43
2023/10/24 11:54:40;;;;;;;2.43;0.70;;;13.50;99.90;;;;;;5096408;28;20190;-42
2023/10/24 11:57:06;;;;;;;0.73;0.73;;;13.40;99.90;;;;;;5096353;28;20230;-44
2023/10/24 11:59:34;;;;;;;1.37;0.93;;;13.40;99.90;;;;;;5078311;28;20591;-44
2023/10/24 12:02:03;;;;;;;1.50;1.00;;;13.30;99.90;;;;;;5095760;28;20217;-43
2023/10/24 12:04:30;;;;;;;1.23;1.10;;;13.30;99.90;;;;;;5096595;28;20179;-44
2023/10/24 12:07:09;;;;;;;2.20;1.10;;;13.30;99.90;;;;;;5096276;28;20297;-42
2023/10/24 12:09:35;;;;;;;1.13;0.70;;;13.20;99.90;;;;;;5077707;28;20194;-42
2023/10/24 12:12:02;;;;;;;2.00;0.77;;;13.20;99.90;;;;;;5077670;28;20222;-42
2023/10/24 12:14:28;;;;;;;1.40;0.50;;;13.20;99.90;;;;;;5077632;28;20695;-41
2023/10/24 12:16:54;;;;;;;0.70;0.50;;;13.10;99.90;;;;;;5096306;28;20187;-41
2023/10/24 12:19:21;;;;;;;0.73;0.70;;;13.10;99.90;;;;;;5095648;28;20542;-43
2023/10/24 12:21:46;;;;;;;0.80;0.60;;;13.10;99.90;;;;;;5077466;28;20688;-41
2023/10/24 12:24:13;;;;;;;1.13;0.80;;;13.10;99.90;;;;;;5076517;28;20298;-43
2023/10/24 12:26:39;;;;;;;2.80;0.70;;;13.00;99.90;;;;;;5077335;28;20340;-40
2023/10/24 12:29:09;;;;;;;1.07;0.70;;;13.00;99.90;;;;;;5077325;28;20200;-42
2023/10/24 12:31:35;;;;;;;1.20;0.80;;;12.90;99.90;;;;;;5095273;28;20201;-42
2023/10/24 12:34:01;;;;;;;1.00;0.63;;;12.90;99.90;;;;;;5095488;28;20173;-42
2023/10/24 12:36:27;;;;;;;2.30;0.87;;;12.80;99.90;;;;;;5095263;28;20263;-41
2023/10/24 12:38:53;;;;;;;1.60;0.80;;;12.80;99.90;;;;;;5095275;28;20652;-43
2023/10/24 12:41:18;;;;;;;1.50;0.60;;;12.70;99.90;;;;;;5077836;28;20207;-42
2023/10/24 12:43:44;;;;;;;2.47;0.93;;;12.70;99.90;;;;;;5095174;28;20637;-42
2023/10/24 12:49:41;;;;;;;1.37;0.87;;;12.60;99.90;;;;;;5078657;28;20178;-45
2023/10/24 12:52:07;;;;;;;0.77;0.77;;;12.60;99.90;;;;;;5076794;28;20175;-47
2023/10/24 12:54:34;;;;;;;1.67;0.73;;;12.60;99.90;;;;;;5061142;28;20249;-45
2023/10/24 12:57:02;;;;;;;1.30;0.80;;;12.60;99.90;;;;;;5076964;28;20206;-45
2023/10/24 12:59:31;;;;;;;1.10;0.87;;;12.60;99.90;;;;;;5076644;28;20664;-45
2023/10/24 13:02:06;;;;;;;1.30;1.10;;;12.70;99.90;;;;;;5094555;28;20686;-45